Time;durP1;ratioP1;P1;durP2;ratioP2;P2;SDS_P1;SDS_P2;PMS_P1;PMS_P2;Temp;Humidity;BMP_temperature;BMP_pressure;BME280_temperature;BME280_humidity;BME280_pressure;Samples;Min_cycle;Max_cycle;Signal;HPM_P1;HPM_P2
2022/05/20 00:01:09;;;;;;;10.97;5.70;;;;;;;10.17;99.68;100169.16;5033113;28;20219;-82
2022/05/20 00:03:36;;;;;;;8.93;5.67;;;;;;;10.17;100.00;100173.34;5033024;28;20182;-83
2022/05/20 00:06:02;;;;;;;10.47;5.40;;;;;;;11.22;98.24;100374.47;5031666;28;20620;-83
2022/05/20 00:08:28;;;;;;;9.93;5.67;;;;;;;11.04;98.63;100352.28;5032789;28;20161;-82
2022/05/20 00:10:54;;;;;;;11.07;5.70;;;;;;;9.57;95.50;100103.22;5032667;28;20169;-82
2022/05/20 00:13:27;;;;;;;8.80;5.17;;;;;;;10.98;97.31;100362.06;5032803;28;20166;-82
2022/05/20 00:15:53;;;;;;;10.50;5.93;;;;;;;9.32;96.09;100092.44;5059475;28;20318;-82
2022/05/20 00:18:19;;;;;;;9.77;5.77;;;;;;;8.44;94.91;99922.16;5072920;28;20559;-82
2022/05/20 00:20:45;;;;;;;9.97;6.17;;;;;;;10.77;94.11;100340.56;5072953;28;20169;-81
2022/05/20 00:23:10;;;;;;;11.23;6.33;;;;;;;10.56;95.83;100303.09;5037322;28;20173;-82
2022/05/20 00:25:46;;;;;;;10.07;6.40;;;;;;;10.77;95.78;100333.81;5032803;28;20165;-82
2022/05/20 00:28:25;;;;;;;11.60;6.37;;;;;;;10.23;93.82;100216.72;5032728;28;20161;-81
2022/05/20 00:30:57;;;;;;;11.97;6.40;;;;;;;10.97;94.78;100357.75;5032378;28;20166;-82
2022/05/20 00:33:24;;;;;;;12.00;7.33;;;;;;;10.23;95.51;100245.44;5032637;28;20166;-83
2022/05/20 00:35:50;;;;;;;11.80;6.80;;;;;;;10.99;94.18;100362.13;5045389;28;20172;-83
2022/05/20 00:38:16;;;;;;;9.57;6.13;;;;;;;10.01;93.00;100190.16;5072107;28;20171;-82
2022/05/20 00:40:42;;;;;;;10.43;5.90;;;;;;;11.04;93.69;100360.72;5071887;28;20195;-82
2022/05/20 00:43:13;;;;;;;12.53;6.50;;;;;;;10.93;94.61;100361.78;5072120;28;20157;-82
2022/05/20 00:45:40;;;;;;;9.17;6.13;;;;;;;10.72;94.72;100347.00;5071816;28;20222;-82
2022/05/20 00:48:06;;;;;;;8.93;5.97;;;;;;;9.84;96.26;100200.94;5071421;28;20173;-83
2022/05/20 00:50:33;;;;;;;11.30;5.90;;;;;;;8.00;96.10;99891.69;5071515;28;20181;-83
2022/05/20 00:52:59;;;;;;;9.40;5.60;;;;;;;10.15;96.36;100243.22;5071248;28;20239;-81
2022/05/20 00:55:26;;;;;;;9.23;5.47;;;;;;;10.96;92.55;100341.69;5071735;28;20621;-81
2022/05/20 00:57:57;;;;;;;8.47;5.37;;;;;;;11.05;91.29;100339.69;5078997;28;20164;-82
2022/05/20 01:00:25;;;;;;;9.97;5.97;;;;;;;11.31;90.27;100355.47;5039504;28;20194;-82
2022/05/20 01:02:56;;;;;;;11.53;6.03;;;;;;;11.36;90.84;100352.41;5033099;28;20186;-83
2022/05/20 01:05:27;;;;;;;12.73;7.07;;;;;;;10.92;90.77;100278.09;5032578;28;20178;-82
2022/05/20 01:07:53;;;;;;;18.80;9.30;;;;;;;11.50;89.38;100358.25;5031386;28;20241;-83
2022/05/20 01:10:19;;;;;;;34.27;15.37;;;;;;;10.08;87.90;100121.41;5031329;28;20219;-82
2022/05/20 01:12:46;;;;;;;24.93;11.97;;;;;;;10.86;88.06;100257.47;5031189;28;20182;-83
2022/05/20 01:15:12;;;;;;;15.77;8.30;;;;;;;10.50;89.21;100206.50;5068862;28;20611;-82
2022/05/20 01:17:38;;;;;;;9.40;6.47;;;;;;;10.87;89.48;100251.63;5071176;28;20168;-82
2022/05/20 01:20:11;;;;;;;11.10;6.03;;;;;;;9.35;89.21;100002.56;5071368;28;20157;-82
2022/05/20 01:22:40;;;;;;;7.53;5.50;;;;;;;10.80;87.29;100235.22;5048503;28;20237;-82
2022/05/20 01:25:08;;;;;;;8.90;5.50;;;;;;;11.18;86.51;100310.81;5031310;28;20193;-82
2022/05/20 01:27:36;;;;;;;10.03;4.93;;;;;;;10.38;84.91;100177.13;5031623;28;20624;-84
2022/05/20 01:30:03;;;;;;;6.67;4.23;;;;;;;9.26;80.34;99986.84;5031825;28;20154;-82
2022/05/20 01:32:29;;;;;;;9.67;4.40;;;;;;;10.56;80.20;100233.84;5031904;28;20189;-83
2022/05/20 01:34:55;;;;;;;6.77;4.03;;;;;;;11.10;81.30;100373.75;5034265;28;20583;-82
2022/05/20 01:37:20;;;;;;;8.27;4.30;;;;;;;9.83;83.03;100145.22;5031396;28;20603;-82
2022/05/20 01:39:45;;;;;;;12.77;4.40;;;;;;;11.03;82.74;100370.78;5031483;28;20158;-82
2022/05/20 01:42:20;;;;;;;10.37;5.93;;;;;;;10.49;81.25;100257.06;5030218;28;20638;-83
2022/05/20 01:45:01;;;;;;;21.17;9.97;;;;;;;11.08;81.09;100372.81;5029923;28;20169;-82
2022/05/20 01:47:39;;;;;;;20.17;9.60;;;;;;;10.65;81.38;100305.28;5031171;28;20220;-83
2022/05/20 01:50:08;;;;;;;30.67;13.87;;;;;;;11.18;80.47;100382.66;5030884;28;20537;-82
2022/05/20 01:52:36;;;;;;;21.47;9.53;;;;;;;11.27;80.28;100378.13;5037302;28;20740;-82
2022/05/20 01:55:16;;;;;;;13.13;6.27;;;;;;;10.36;83.99;100249.53;5050835;28;20219;-82
2022/05/20 01:58:01;;;;;;;27.50;14.10;;;;;;;10.50;82.30;100248.66;5049560;28;20252;-82
2022/05/20 02:00:29;;;;;;;12.77;6.97;;;;;;;11.03;84.13;100356.47;5052020;28;20216;-82
2022/05/20 02:03:09;;;;;;;7.83;4.47;;;;;;;10.35;87.48;100290.84;5054465;28;20165;-82
2022/05/20 02:05:57;;;;;;;7.60;3.83;;;;;;;10.15;89.67;100306.50;5054474;28;20161;-83
2022/05/20 02:08:44;;;;;;;5.27;3.50;;;;;;;10.26;90.01;100280.16;5054421;28;20158;-81
2022/05/20 02:11:15;;;;;;;5.53;3.43;;;;;;;10.82;86.41;100370.44;5054199;28;20614;-82
2022/05/20 02:13:46;;;;;;;5.43;3.47;;;;;;;9.76;85.11;100186.97;5054276;28;20169;-83
2022/05/20 02:16:17;;;;;;;4.70;3.57;;;;;;;10.16;83.36;100300.66;5054196;28;20171;-82
2022/05/20 02:18:56;;;;;;;5.70;3.50;;;;;;;9.95;83.83;100341.53;5054230;28;20177;-83
2022/05/20 02:21:26;;;;;;;7.37;3.70;;;;;;;8.95;84.58;100150.00;5034453;28;20305;-82
2022/05/20 02:23:57;;;;;;;5.57;3.63;;;;;;;9.04;85.62;100177.47;5034540;28;20166;-83
2022/05/20 02:26:27;;;;;;;5.10;3.27;;;;;;;10.01;85.09;100309.03;5034202;28;20197;-82
2022/05/20 02:28:58;;;;;;;6.57;3.63;;;;;;;10.16;86.41;100344.56;5047561;28;20661;-82
2022/05/20 02:31:31;;;;;;;7.30;3.63;;;;;;;10.14;85.32;100322.44;5053937;28;20201;-83
2022/05/20 02:33:56;;;;;;;6.50;3.80;;;;;;;8.06;86.53;99970.22;5053850;28;20162;-81
2022/05/20 02:36:23;;;;;;;7.43;3.80;;;;;;;10.42;87.14;100382.41;5053889;28;20230;-84
2022/05/20 02:38:49;;;;;;;6.00;3.60;;;;;;;9.89;86.17;100315.00;5054054;28;20170;-83
2022/05/20 02:41:14;;;;;;;4.60;3.27;;;;;;;10.28;83.99;100359.56;5053216;28;20188;-82
2022/05/20 02:43:39;;;;;;;6.23;3.20;;;;;;;9.53;83.63;100240.34;5053774;28;20171;-83
2022/05/20 02:46:05;;;;;;;5.00;3.30;;;;;;;9.13;82.71;100160.34;5053906;28;20172;-82
2022/05/20 02:48:31;;;;;;;4.47;3.20;;;;;;;8.73;82.65;100099.84;5054231;28;20248;-82
2022/05/20 02:50:58;;;;;;;5.20;3.40;;;;;;;9.42;82.58;100233.75;5053781;28;20618;-83
2022/05/20 02:53:24;;;;;;;4.47;2.77;;;;;;;7.65;81.10;99980.22;5035323;28;20225;-83
2022/05/20 02:55:50;;;;;;;4.50;3.00;;;;;;;9.60;81.23;100285.44;5055775;28;20205;-82
2022/05/20 03:04:11;;;;;;;5.20;3.27;;;;;;;9.72;80.90;100308.06;5054385;28;20612;-82
2022/05/20 03:06:41;;;;;;;6.33;3.00;;;;;;;10.00;81.08;100369.63;5054342;28;20168;-83
2022/05/20 03:09:09;;;;;;;5.83;3.30;;;;;;;10.19;80.43;100371.69;5055315;28;20268;-83
2022/05/20 03:11:35;;;;;;;6.00;3.30;;;;;;;10.37;79.66;100378.72;5052935;28;20200;-82
2022/05/20 03:14:03;;;;;;;6.30;3.40;;;;;;;10.35;78.74;100351.59;5053489;28;20173;-82
2022/05/20 03:16:29;;;;;;;6.27;3.50;;;;;;;9.43;78.07;100164.72;5053220;28;20158;-82
2022/05/20 03:18:54;;;;;;;4.80;3.60;;;;;;;10.37;77.76;100312.03;5035214;28;20694;-81
2022/05/20 03:21:20;;;;;;;7.73;3.70;;;;;;;9.94;77.69;100247.88;5047915;28;20173;-82
2022/05/20 03:23:45;;;;;;;7.43;4.17;;;;;;;10.79;78.13;100388.00;5052843;28;20161;-83
2022/05/20 03:26:10;;;;;;;12.97;5.07;;;;;;;9.98;77.78;100219.44;5052943;28;20153;-83
2022/05/20 03:28:36;;;;;;;21.97;8.20;;;;;;;9.77;77.59;100171.03;5052610;28;20183;-82
2022/05/20 03:31:09;;;;;;;18.07;7.27;;;;;;;10.65;78.03;100311.22;5052878;28;20181;-83
2022/05/20 03:33:36;;;;;;;20.13;8.07;;;;;;;10.68;78.75;100328.25;5051633;28;20173;-83
2022/05/20 03:36:01;;;;;;;10.70;6.50;;;;;;;9.10;82.19;100147.50;5053548;28;20162;-83
2022/05/20 03:38:27;;;;;;;7.30;4.30;;;;;;;9.99;83.81;100328.31;5052645;28;20664;-81
2022/05/20 03:40:52;;;;;;;7.20;4.10;;;;;;;9.43;88.82;100296.13;5051970;28;20169;-82
2022/05/20 03:43:17;;;;;;;9.90;5.00;;;;;;;9.12;89.90;100244.50;5052516;28;20181;-83
2022/05/20 03:45:43;;;;;;;7.83;4.30;;;;;;;6.91;89.86;99860.44;5052595;28;20166;-83
2022/05/20 03:48:09;;;;;;;8.97;4.63;;;;;;;9.67;90.48;100317.88;5053089;28;20214;-85
2022/05/20 03:50:35;;;;;;;9.07;4.70;;;;;;;10.12;89.42;100382.16;5053046;28;20186;-81
2022/05/20 03:53:00;;;;;;;9.93;5.83;;;;;;;10.22;89.13;100404.78;5060500;28;20359;-83
2022/05/20 03:55:27;;;;;;;8.47;3.90;;;;;;;9.73;89.20;100308.13;5059138;28;20189;-82
2022/05/20 03:57:52;;;;;;;11.70;5.33;;;;;;;7.76;86.73;99973.34;5052334;28;20183;-83
2022/05/20 04:00:18;;;;;;;8.20;4.87;;;;;;;10.25;87.16;100382.16;5052331;28;20241;-83
2022/05/20 04:02:44;;;;;;;9.73;4.20;;;;;;;10.29;85.96;100389.16;5052722;28;20177;-82
2022/05/20 04:05:09;;;;;;;6.73;4.13;;;;;;;9.48;84.71;100254.31;5052005;28;20181;-82
2022/05/20 04:07:36;;;;;;;7.03;4.13;;;;;;;10.35;85.25;100387.91;5052221;28;20157;-83
2022/05/20 04:10:02;;;;;;;8.67;4.40;;;;;;;9.94;84.25;100281.59;5052502;28;20556;-83
2022/05/20 04:12:43;;;;;;;10.67;4.80;;;;;;;9.65;84.74;100238.53;5033433;28;20204;-83
2022/05/20 04:15:12;;;;;;;13.67;4.67;;;;;;;10.84;82.65;100385.72;5051967;28;20692;-82
2022/05/20 04:17:37;;;;;;;9.00;4.37;;;;;;;10.71;80.76;100314.88;5052184;28;20169;-83
2022/05/20 04:20:05;;;;;;;12.40;4.77;;;;;;;8.56;80.15;99896.03;5034001;28;20165;-83
2022/05/20 04:22:33;;;;;;;26.97;10.00;;;;;;;11.52;79.10;100387.09;5051906;28;20180;-84
2022/05/20 04:24:59;;;;;;;41.67;14.87;;;;;;;9.45;78.57;99987.13;5035883;28;20170;-82
2022/05/20 04:27:27;;;;;;;12.40;6.07;;;;;;;11.75;78.17;100381.66;5054506;28;20173;-83
2022/05/20 04:29:53;;;;;;;12.00;6.10;;;;;;;10.87;78.00;100237.31;5053432;28;20238;-82
2022/05/20 04:32:19;;;;;;;7.23;4.43;;;;;;;11.41;78.33;100324.78;5053323;28;20197;-83
2022/05/20 04:34:44;;;;;;;7.90;4.57;;;;;;;9.90;77.21;100041.97;5053452;28;20176;-83
2022/05/20 04:37:10;;;;;;;11.93;4.80;;;;;;;11.39;75.51;100235.97;5052887;28;20200;-82
2022/05/20 04:39:35;;;;;;;8.73;4.70;;;;;;;12.33;75.67;100388.19;5053630;28;20203;-83
2022/05/20 04:47:31;;;;;;;8.80;4.40;;;;;;;12.78;68.17;100338.84;5031875;28;20638;-84
2022/05/20 04:49:57;;;;;;;6.07;4.17;;;;;;;12.91;66.07;100395.44;5043019;28;20239;-83
2022/05/20 04:52:23;;;;;;;6.60;4.00;;;;;;;12.69;66.68;100318.91;5056879;28;20770;-84
2022/05/20 04:54:55;;;;;;;8.67;3.90;;;;;;;11.76;68.53;100186.41;5053870;28;20578;-84
2022/05/20 04:57:27;;;;;;;7.67;3.83;;;;;;;12.61;68.85;100360.84;5071788;28;20161;-83
2022/05/20 04:59:58;;;;;;;6.57;3.40;;;;;;;11.69;68.89;100212.25;5075354;28;20207;-83
2022/05/20 05:02:23;;;;;;;7.13;4.80;;;;;;;10.85;68.72;100036.25;5074479;28;20161;-83
2022/05/20 05:04:49;;;;;;;10.67;4.00;;;;;;;11.40;67.89;100110.09;5073189;28;20543;-83
2022/05/20 05:07:15;;;;;;;7.03;3.93;;;;;;;11.85;69.63;100191.06;5072343;28;20235;-83
2022/05/20 05:09:42;;;;;;;6.27;3.80;;;;;;;13.38;68.94;100407.09;5072008;28;20179;-83
2022/05/20 05:12:08;;;;;;;9.20;4.67;;;;;;;13.09;69.44;100387.00;5049891;28;20685;-83
2022/05/20 05:14:39;;;;;;;8.13;4.60;;;;;;;13.20;69.85;100408.75;5051639;28;20196;-83
2022/05/20 05:17:07;;;;;;;10.33;4.30;;;;;;;13.53;67.22;100378.19;5051666;28;20642;-83
2022/05/20 05:19:37;;;;;;;9.97;4.60;;;;;;;13.25;67.22;100309.00;5051955;28;20168;-83
2022/05/20 05:22:05;;;;;;;7.60;3.90;;;;;;;13.77;66.61;100397.94;5051532;28;20188;-82
2022/05/20 05:24:31;;;;;;;6.67;4.33;;;;;;;12.07;65.58;100115.22;5051452;28;20172;-83
2022/05/20 05:26:56;;;;;;;9.53;4.13;;;;;;;13.90;65.87;100413.88;5033968;28;20695;-83
2022/05/20 05:29:22;;;;;;;9.43;4.20;;;;;;;12.93;66.54;100240.50;5047735;28;20193;-85
2022/05/20 05:31:48;;;;;;;5.70;4.20;;;;;;;14.29;64.86;100404.63;5052521;28;20265;-83
2022/05/20 05:34:14;;;;;;;6.73;4.43;;;;;;;13.17;65.17;100213.69;5055737;28;20234;-83
2022/05/20 05:36:40;;;;;;;10.97;5.03;;;;;;;14.06;66.29;100321.25;5054912;28;20177;-83
2022/05/20 05:39:05;;;;;;;11.90;4.63;;;;;;;14.45;64.88;100399.44;5044205;28;20616;-83
2022/05/20 05:41:30;;;;;;;8.43;4.33;;;;;;;14.56;66.57;100412.66;5060059;28;20705;-83
2022/05/20 05:43:57;;;;;;;7.23;4.03;;;;;;;14.50;65.51;100380.13;5073981;28;20268;-84
2022/05/20 05:46:23;;;;;;;9.23;4.17;;;;;;;11.45;63.58;99789.22;5073686;28;20540;-83
2022/05/20 05:48:48;;;;;;;6.87;4.07;;;;;;;14.11;63.62;100205.19;5060164;28;20185;-82
2022/05/20 05:51:13;;;;;;;9.83;4.40;;;;;;;15.28;62.66;100394.50;5033752;28;20185;-83
2022/05/20 05:53:39;;;;;;;8.83;4.30;;;;;;;15.24;63.28;100400.28;5031986;28;20716;-83
2022/05/20 05:56:06;;;;;;;8.83;4.30;;;;;;;15.62;62.95;100392.53;5033878;28;20182;-84
2022/05/20 05:58:32;;;;;;;10.97;4.10;;;;;;;15.85;62.16;100390.84;5029440;28;20257;-83
2022/05/20 06:00:57;;;;;;;9.17;4.43;;;;;;;13.93;61.47;100059.28;5013593;28;20306;-83
2022/05/20 06:03:23;;;;;;;9.37;4.20;;;;;;;15.65;61.05;100267.56;5016369;28;20262;-82
2022/05/20 06:05:49;;;;;;;7.73;3.90;;;;;;;16.32;60.36;100393.50;5013643;28;20323;-83
2022/05/20 06:08:16;;;;;;;7.73;3.90;;;;;;;16.42;58.45;100323.16;5015146;28;20696;-81
2022/05/20 06:10:43;;;;;;;9.97;4.07;;;;;;;16.98;57.70;100383.94;5016989;28;20551;-84
2022/05/20 06:13:08;;;;;;;11.17;4.10;;;;;;;17.09;57.32;100357.88;5023653;28;20213;-83
2022/05/20 06:15:36;;;;;;;6.20;3.97;;;;;;;16.26;54.81;100181.19;5024694;28;20189;-83
2022/05/20 06:18:01;;;;;;;13.33;4.20;;;;;;;17.30;53.36;100311.66;5013030;28;20643;-84
2022/05/20 06:20:27;;;;;;;8.03;4.20;;;;;;;16.83;52.09;100212.94;5013491;28;20193;-84
2022/05/20 06:22:53;;;;;;;6.90;3.27;;;;;;;17.89;51.36;100374.97;5013312;28;20190;-84
2022/05/20 06:25:19;;;;;;;7.67;3.47;;;;;;;16.55;50.09;100207.75;5011721;28;20190;-84
2022/05/20 06:27:45;;;;;;;8.83;3.17;;;;;;;17.64;50.63;100382.72;5001804;28;20237;-82
2022/05/20 06:30:14;;;;;;;6.50;2.90;;;;;;;17.73;50.25;100388.13;5013087;28;20660;-83
2022/05/20 06:32:40;;;;;;;6.90;2.80;;;;;;;17.86;50.10;100381.66;5013377;28;20248;-83
2022/05/20 06:40:44;;;;;;;8.50;3.17;;;;;;;18.44;48.74;100386.78;5015402;28;20588;-83
2022/05/20 06:43:12;;;;;;;9.43;3.53;;;;;;;18.13;47.85;100241.53;4998388;28;20259;-83
2022/05/20 06:45:38;;;;;;;7.67;3.27;;;;;;;18.89;48.00;100379.50;5031921;28;20655;-82
2022/05/20 06:48:03;;;;;;;6.10;3.50;;;;;;;17.45;48.69;100124.34;5017582;28;20193;-82
2022/05/20 06:50:29;;;;;;;8.67;3.10;;;;;;;18.41;46.69;100240.56;5012917;28;20190;-83
2022/05/20 06:52:54;;;;;;;5.77;3.27;;;;;;;19.26;46.65;100380.47;5011951;28;20298;-82
2022/05/20 06:55:19;;;;;;;6.57;2.90;;;;;;;18.97;44.85;100355.78;5031479;28;20193;-83
2022/05/20 06:57:45;;;;;;;8.17;3.20;;;;;;;16.59;44.23;99864.44;5032572;28;20178;-84
2022/05/20 07:00:11;;;;;;;5.57;3.13;;;;;;;19.77;44.75;100375.75;5032073;28;20194;-83
2022/05/20 07:02:38;;;;;;;5.17;3.27;;;;;;;19.01;44.17;100239.53;5032007;28;20194;-83
2022/05/20 07:05:04;;;;;;;7.33;3.00;;;;;;;19.69;44.04;100376.41;5032382;28;20622;-84
2022/05/20 07:07:31;;;;;;;9.43;3.67;;;;;;;18.81;45.09;100230.50;5031530;28;20178;-83
2022/05/20 07:09:56;;;;;;;8.03;3.90;;;;;;;20.17;44.14;100385.16;5032233;28;20182;-83
2022/05/20 07:12:22;;;;;;;13.07;3.90;;;;;;;17.72;44.10;99960.38;5031686;28;20271;-83
2022/05/20 07:14:47;;;;;;;8.70;4.07;;;;;;;19.29;43.04;100164.84;5029871;28;20216;-84
2022/05/20 07:17:17;;;;;;;10.43;4.67;;;;;;;20.97;42.22;100375.59;5031545;28;20632;-83
2022/05/20 07:19:43;;;;;;;5.73;3.87;;;;;;;20.54;41.30;100266.75;5031667;28;20182;-83
2022/05/20 07:22:09;;;;;;;7.20;3.77;;;;;;;19.38;41.45;100159.09;5032333;28;20181;-82
2022/05/20 07:24:36;;;;;;;7.70;3.63;;;;;;;19.79;41.44;100247.25;5031780;28;20174;-83
2022/05/20 07:27:02;;;;;;;5.50;4.17;;;;;;;20.20;41.43;100224.91;5022693;28;20191;-83
2022/05/20 07:29:28;;;;;;;8.07;4.07;;;;;;;20.67;41.08;100272.09;5008102;28;20234;-83
2022/05/20 07:31:53;;;;;;;9.13;3.80;;;;;;;20.45;41.02;100204.84;5026255;28;20208;-83
2022/05/20 07:34:18;;;;;;;7.50;2.80;;;;;;;20.25;39.78;100247.34;5031564;28;20673;-83
2022/05/20 07:36:44;;;;;;;8.27;3.00;;;;;;;20.90;38.62;100291.38;5031278;28;20180;-82
2022/05/20 07:39:09;;;;;;;5.00;2.90;;;;;;;20.74;37.61;100217.34;5030157;28;20178;-82
2022/05/20 07:41:35;;;;;;;5.83;2.80;;;;;;;21.94;38.51;100387.50;5031112;28;20185;-84
2022/05/20 07:44:01;;;;;;;7.23;3.03;;;;;;;21.97;37.31;100387.53;5031680;28;20212;-84
2022/05/20 07:46:27;;;;;;;4.50;2.50;;;;;;;19.14;36.83;99910.41;5030922;28;20185;-83
2022/05/20 07:48:53;;;;;;;5.90;2.57;;;;;;;21.96;35.29;100384.09;5011494;28;20274;-84
2022/05/20 07:51:22;;;;;;;6.53;2.60;;;;;;;22.38;34.41;100403.56;5011819;28;20183;-84
2022/05/20 07:53:57;;;;;;;9.83;2.77;;;;;;;22.22;35.29;100366.38;5010177;28;20222;-83
2022/05/20 07:57:14;;;;;;;5.87;2.50;;;;;;;22.55;35.26;100371.91;5011674;28;20189;-84
2022/05/20 07:59:47;;;;;;;4.80;2.20;;;;;;;22.24;33.49;100323.41;4952832;29;20207;-85
2022/05/20 08:02:15;;;;;;;2.60;2.00;;;;;;;21.62;33.39;100224.63;4957899;28;20195;-83
2022/05/20 08:05:02;;;;;;;5.73;2.57;;;;;;;21.96;33.38;100256.88;4977887;28;20615;-84
2022/05/20 08:07:37;;;;;;;4.70;2.70;;;;;;;22.85;33.71;100377.44;4967807;28;20216;-84
2022/05/20 08:10:07;;;;;;;5.13;2.40;;;;;;;22.24;33.48;100251.16;4958404;29;20192;-84
2022/05/20 08:12:33;;;;;;;5.57;2.67;;;;;;;21.76;32.62;100133.72;4971000;28;20732;-83
2022/05/20 08:14:58;;;;;;;3.03;2.20;;;;;;;20.74;31.96;99929.09;4952443;29;20224;-83
2022/05/20 08:17:25;;;;;;;4.20;1.90;;;;;;;21.98;31.29;100201.88;4957050;28;20189;-83
2022/05/20 08:19:52;;;;;;;3.53;2.30;;;;;;;22.63;31.90;100326.47;4967400;28;20451;-84
2022/05/20 08:22:22;;;;;;;2.67;2.10;;;;;;;22.72;31.27;100282.63;4954620;29;20704;-84
2022/05/20 08:24:57;;;;;;;3.67;2.17;;;;;;;23.33;31.87;100364.09;4943646;29;20193;-84
2022/05/20 08:27:25;;;;;;;4.23;2.20;;;;;;;22.99;31.24;100250.16;4949213;28;20196;-84
2022/05/20 08:29:50;;;;;;;5.23;2.30;;;;;;;22.99;30.35;100230.31;4952576;29;20200;-83
2022/05/20 08:32:16;;;;;;;5.00;2.70;;;;;;;24.11;31.04;100347.38;4951575;29;20208;-84
2022/05/20 08:34:46;;;;;;;6.10;2.23;;;;;;;22.73;30.44;100090.72;4984904;28;20201;-84
2022/05/20 08:37:13;;;;;;;3.80;2.13;;;;;;;20.64;29.35;99839.75;5032364;28;20220;-84
2022/05/20 08:39:39;;;;;;;3.40;1.93;;;;;;;23.44;28.84;100287.50;5033215;28;20182;-84
2022/05/20 08:42:11;;;;;;;7.83;2.10;;;;;;;23.48;29.03;100334.94;5028575;28;20190;-84
2022/05/20 08:44:37;;;;;;;3.13;2.10;;;;;;;22.44;28.64;100159.34;5011152;28;20230;-84
2022/05/20 08:47:24;;;;;;;4.00;2.03;;;;;;;24.01;28.96;100330.91;5038908;28;20703;-84
2022/05/20 08:49:53;;;;;;;3.07;2.10;;;;;;;22.56;27.91;100133.59;5032641;28;20239;-85
2022/05/20 08:52:19;;;;;;;4.43;1.93;;;;;;;22.79;28.17;100114.00;5035260;28;20224;-83
2022/05/20 08:54:45;;;;;;;3.17;2.07;;;;;;;24.34;27.79;100334.50;5051035;28;20235;-84
2022/05/20 08:57:21;;;;;;;4.17;2.10;;;;;;;24.32;28.70;100287.03;5051500;28;20189;-85
2022/05/20 08:59:47;;;;;;;4.00;2.20;;;;;;;24.26;28.82;100299.97;5051902;28;20570;-84
2022/05/20 09:02:12;;;;;;;4.20;2.20;;;;;;;23.88;27.94;100173.06;5034046;28;20192;-86
2022/05/20 09:04:38;;;;;;;4.60;2.40;;;;;;;23.62;27.86;100116.13;5031148;28;20174;-86
2022/05/20 09:07:14;;;;;;;5.63;2.30;;;;;;;24.43;28.65;100290.53;5036454;28;20605;-86
2022/05/20 09:09:49;;;;;;;3.97;2.20;;;;;;;25.48;27.86;100310.47;5028792;28;20244;-85
2022/05/20 09:12:32;;;;;;;3.87;2.13;;;;;;;25.29;27.32;100307.88;5030830;28;20208;-85
2022/05/20 09:17:51;;;;;;;4.83;2.30;;;;;;;24.15;27.88;100167.97;5043533;28;20196;-86
2022/05/20 09:20:22;;;;;;;4.53;2.20;;;;;;;24.99;27.96;100293.22;5030220;28;20244;-85
2022/05/20 09:23:06;;;;;;;3.33;2.07;;;;;;;25.36;27.28;100291.41;5042673;28;20271;-85
2022/05/20 09:25:43;;;;;;;3.70;2.20;;;;;;;25.15;27.03;100168.78;5051555;28;20829;-84
2022/05/20 09:28:21;;;;;;;3.43;2.23;;;;;;;26.22;27.02;100286.00;5039399;28;20286;-85
2022/05/20 09:30:50;;;;;;;3.13;1.90;;;;;;;25.06;26.46;100149.78;5051296;28;20181;-84
2022/05/20 09:33:22;;;;;;;3.30;2.20;;;;;;;23.03;27.28;99926.41;5045908;28;20205;-86
2022/05/20 09:36:02;;;;;;;6.27;2.10;;;;;;;25.61;26.29;100275.84;5013357;28;20197;-87
2022/05/20 09:38:35;;;;;;;2.53;2.00;;;;;;;25.44;26.70;100271.53;5042127;28;20181;-88
2022/05/20 09:41:16;;;;;;;4.77;2.33;;;;;;;26.08;27.28;100265.28;5051256;28;20192;-89
2022/05/20 09:43:44;;;;;;;4.20;2.13;;;;;;;24.83;26.35;100035.88;5050528;28;20253;-87
2022/05/20 09:46:29;;;;;;;4.93;2.47;;;;;;;26.40;26.11;100261.66;5032945;28;20272;-88
2022/05/20 09:49:11;;;;;;;3.35;2.30;;;;;;;24.08;27.03;100063.59;5030895;28;20256;-88
2022/05/20 09:51:41;;;;;;;3.27;2.30;;;;;;;25.06;27.42;100101.44;5030493;28;20288;-88
2022/05/20 09:54:16;;;;;;;3.77;2.10;;;;;;;26.28;26.00;100253.09;5029968;28;20222;-87
2022/05/20 09:56:56;;;;;;;3.78;2.10;;;;;;;26.50;26.15;100250.34;5018795;28;20182;-89
2022/05/20 09:59:32;;;;;;;3.28;2.00;;;;;;;25.52;26.30;100024.31;5024863;28;20280;-89
2022/05/20 10:02:36;;;;;;;3.47;2.00;;;;;;;26.57;25.74;100242.47;5032625;28;20191;-87
2022/05/20 10:05:17;;;;;;;3.67;2.20;;;;;;;26.52;26.21;100241.66;4935658;29;20193;-89
2022/05/20 10:08:07;;;;;;;4.43;2.10;;;;;;;26.15;26.50;100146.72;4936130;29;20190;-91
2022/05/20 10:10:42;;;;;;;3.58;2.08;;;;;;;25.97;26.07;100238.50;4944245;29;20233;-90
2022/05/20 10:13:15;;;;;;;5.25;2.05;;;;;;;25.49;25.44;100142.78;4952648;29;20212;-91
2022/05/20 10:15:46;;;;;;;3.97;2.17;;;;;;;26.23;26.41;100239.25;4937570;29;20212;-91
2022/05/20 10:18:28;;;;;;;6.18;2.15;;;;;;;26.03;26.79;100190.91;4954858;29;20270;-92
2022/05/20 10:21:30;;;;;;;2.60;2.20;;;;;;;26.05;26.73;100197.78;4940744;29;20190;-91
2022/05/20 10:24:32;;;;;;;3.58;2.03;;;;;;;25.22;26.57;100068.53;4938461;29;20201;-92
2022/05/20 10:27:04;;;;;;;4.35;2.10;;;;;;;26.09;26.21;100222.88;4920219;29;20190;-91
2022/05/20 10:32:40;;;;;;;2.53;1.90;;;;;;;26.78;25.09;100218.94;4942544;29;20292;-90
2022/05/20 10:35:10;;;;;;;2.80;1.95;;;;;;;25.70;25.04;100059.66;4970734;28;20741;-90
2022/05/20 10:37:55;;;;;;;4.00;1.98;;;;;;;25.75;25.79;100024.16;5007136;28;20256;-90
2022/05/20 10:40:45;;;;;;;3.65;2.20;;;;;;;26.37;25.96;100213.19;5020582;28;20200;-89
2022/05/20 10:43:21;;;;;;;3.55;2.47;;;;;;;25.33;25.62;100007.09;5043126;28;20204;-88
2022/05/20 10:49:00;;;;;;;5.60;1.77;;;;;;;26.85;24.41;100204.16;5021940;28;20251;-89
2022/05/20 10:51:45;;;;;;;27.10;13.38;;;;;;;27.14;25.24;100199.53;5001317;28;20877;-88
2022/05/20 10:54:38;;;;;;;18.95;11.13;;;;;;;27.16;25.21;100205.59;5036645;28;20290;-89
2022/05/20 10:57:35;;;;;;;4.75;2.30;;;;;;;26.22;24.01;100027.25;5026127;28;20197;-90
2022/05/20 11:00:16;;;;;;;4.10;2.28;;;;;;;25.68;24.12;99949.84;5033059;28;20280;-88
2022/05/20 11:03:07;;;;;;;4.53;2.97;;;;;;;26.92;24.43;100192.81;5028310;28;20257;-90
2022/05/20 11:06:03;;;;;;;3.30;1.80;;;;;;;27.09;23.26;100187.44;5022391;28;20191;-90
2022/05/20 11:08:56;;;;;;;2.58;1.90;;;;;;;26.90;23.96;100182.44;5035701;28;20258;-90
2022/05/20 11:11:46;;;;;;;2.70;1.95;;;;;;;26.53;22.75;100181.03;5016648;28;20226;-89
2022/05/20 11:14:36;;;;;;;2.40;1.90;;;;;;;25.51;22.86;100030.38;5017450;28;20227;-90
2022/05/20 11:17:19;;;;;;;2.05;1.80;;;;;;;26.67;23.53;100173.13;5023458;28;20184;-90
2022/05/20 11:19:56;;;;;;;5.18;2.33;;;;;;;26.86;22.91;100166.91;5039129;28;20616;-92
2022/05/20 11:22:59;;;;;;;2.38;2.00;;;;;;;26.66;23.58;100166.19;5035823;28;20189;-89
2022/05/20 11:25:24;;;;;;;2.45;1.70;;;;;;;27.24;22.71;100169.09;5035563;28;20215;-90
2022/05/20 11:28:27;;;;;;;2.58;1.65;;;;;;;28.35;22.03;100168.50;5038474;28;20183;-90
2022/05/20 11:31:46;;;;;;;3.70;1.70;;;;;;;29.29;20.98;100165.06;5042908;28;20228;-90
2022/05/20 11:34:48;;;;;;;3.30;1.80;;;;;;;29.62;20.63;100155.66;4962380;28;20568;-90
2022/05/20 11:37:20;;;;;;;2.65;1.70;;;;;;;30.55;19.55;100157.88;4976780;28;20179;-88
2022/05/20 11:40:15;;;;;;;3.60;2.00;;;;;;;30.81;20.01;100155.44;4962939;28;20196;-90
2022/05/20 11:43:02;;;;;;;3.00;1.70;;;;;;;30.37;19.62;100155.72;4981628;28;20176;-89
2022/05/20 11:45:36;;;;;;;2.22;1.70;;;;;;;31.40;18.28;100152.94;4980628;28;20275;-90
2022/05/20 11:48:16;;;;;;;3.13;1.60;;;;;;;31.77;18.63;100148.38;4961647;28;20195;-90
2022/05/20 11:51:12;;;;;;;2.60;1.60;;;;;;;30.60;19.04;100142.09;4977319;28;20194;-88
2022/05/20 11:53:55;;;;;;;3.05;1.60;;;;;;;29.43;18.98;100139.56;4961393;28;20324;-90
2022/05/20 11:56:39;;;;;;;2.72;1.70;;;;;;;30.00;19.36;100047.75;4947817;29;20269;-90
2022/05/20 11:59:16;;;;;;;2.85;1.83;;;;;;;31.60;17.86;100111.34;4945785;29;20204;-91
2022/05/20 12:01:47;;;;;;;4.60;1.90;;;;;;;31.98;17.75;99974.75;4941803;29;20236;-93
2022/05/20 12:04:14;;;;;;;3.97;1.67;;;;;;;33.38;17.64;100070.22;4945386;29;20282;-92
2022/05/20 12:06:46;;;;;;;2.80;1.50;;;;;;;33.89;17.28;100127.78;4951139;29;20259;-90
2022/05/20 12:09:39;;;;;;;2.58;1.80;;;;;;;31.43;17.51;99821.25;5025622;28;20197;-92